Time;durP1;ratioP1;P1;durP2;ratioP2;P2;SDS_P1;SDS_P2;PMS_P1;PMS_P2;Temp;Humidity;BMP_temperature;BMP_pressure;BME280_temperature;BME280_humidity;BME280_pressure;Samples;Min_cycle;Max_cycle;Signal;HPM_P1;HPM_P2
2022/03/14 00:00:49;;;;;;;2.83;2.53;;;;;;;;;;4954962;28;20492;-76
2022/03/14 00:03:15;;;;;;;2.60;2.20;;;;;;;;;;4943707;28;20424;-76
2022/03/14 00:06:43;;;;;;;4.47;2.30;;;;;;;;;;5183453;27;20504;-76
2022/03/14 00:09:10;;;;;;;3.30;2.30;;;;;;;;;;5186604;27;20402;-77
2022/03/14 00:11:36;;;;;;;2.20;2.00;;;;;;;;;;5171020;27;20446;-77
2022/03/14 00:14:08;;;;;;;3.63;2.43;;;;;;;;;;5191139;27;20426;-77
2022/03/14 00:16:41;;;;;;;4.10;2.10;;;;;;;;;;5170864;27;20503;-75
2022/03/14 00:19:07;;;;;;;2.53;2.30;;;;;;;;;;5138125;27;20475;-76
2022/03/14 00:21:38;;;;;;;2.60;2.10;;;;;;;;;;5111524;28;20447;-77
2022/03/14 00:24:05;;;;;;;3.33;2.50;;;;;;;;;;5079192;28;20456;-78
2022/03/14 00:26:32;;;;;;;2.70;2.10;;;;;;;;;;5017323;28;20631;-79
2022/03/14 00:31:53;;;;;;;3.73;2.17;;;;;;;;;;5192790;27;20499;-77
2022/03/14 00:34:19;;;;;;;3.50;2.63;;;;;;;;;;5179601;27;20436;-75
2022/03/14 00:36:45;;;;;;;3.30;2.50;;;;;;;;;;5161405;27;20922;-76
2022/03/14 00:39:11;;;;;;;2.77;2.40;;;;;;;;;;5149632;27;20417;-75
2022/03/14 00:41:37;;;;;;;3.60;3.20;;;;;;;;;;5094326;28;20444;-76
2022/03/14 00:44:03;;;;;;;2.70;2.50;;;;;;;;;;5086000;28;20779;-77
2022/03/14 00:46:30;;;;;;;3.27;2.70;;;;;;;;;;5058961;28;20524;-78
2022/03/14 00:48:55;;;;;;;3.53;2.80;;;;;;;;;;5061227;28;20437;-76
2022/03/14 00:51:22;;;;;;;3.30;2.63;;;;;;;;;;5011145;28;20468;-76
2022/03/14 00:56:33;;;;;;;3.07;2.77;;;;;;;;;;5184747;27;20507;-78
2022/03/14 00:58:59;;;;;;;3.77;2.90;;;;;;;;;;5187489;27;20411;-79
2022/03/14 01:01:26;;;;;;;2.43;2.23;;;;;;;;;;5186943;27;20783;-77
2022/03/14 01:03:52;;;;;;;3.67;2.80;;;;;;;;;;5145123;27;20832;-78
2022/03/14 01:06:18;;;;;;;4.03;2.77;;;;;;;;;;5047968;28;20503;-78
2022/03/14 01:08:44;;;;;;;2.70;2.50;;;;;;;;;;4932260;28;20448;-79
2022/03/14 01:11:11;;;;;;;2.50;2.30;;;;;;;;;;4920365;28;20929;-79
2022/03/14 01:13:37;;;;;;;4.23;2.70;;;;;;;;;;4923638;28;20488;-79
2022/03/14 01:18:40;;;;;;;2.57;2.37;;;;;;;;;;5193107;27;20487;-80
2022/03/14 01:21:06;;;;;;;2.70;2.50;;;;;;;;;;5187803;27;20872;-76
2022/03/14 01:23:32;;;;;;;5.00;2.90;;;;;;;;;;5191742;27;20417;-78
2022/03/14 01:25:58;;;;;;;3.50;2.67;;;;;;;;;;5162518;27;20469;-77
2022/03/14 01:28:24;;;;;;;2.83;2.40;;;;;;;;;;5092944;28;20811;-77
2022/03/14 01:30:50;;;;;;;3.60;2.53;;;;;;;;;;5080168;28;20435;-79
2022/03/14 01:33:16;;;;;;;3.57;2.77;;;;;;;;;;5095420;28;20439;-77
2022/03/14 01:35:42;;;;;;;3.20;2.80;;;;;;;;;;5065103;28;20445;-79
2022/03/14 01:38:09;;;;;;;2.60;2.40;;;;;;;;;;5054729;28;20490;-78
2022/03/14 01:43:26;;;;;;;3.17;2.93;;;;;;;;;;5192098;27;20862;-77
2022/03/14 01:45:55;;;;;;;6.03;3.07;;;;;;;;;;5167410;27;20486;-79
2022/03/14 01:48:21;;;;;;;3.60;2.50;;;;;;;;;;5153885;27;20448;-79
2022/03/14 01:50:47;;;;;;;3.17;2.87;;;;;;;;;;5170005;27;20465;-78
2022/03/14 01:53:13;;;;;;;3.33;3.03;;;;;;;;;;5155422;27;20432;-79
2022/03/14 01:55:39;;;;;;;3.58;3.10;;;;;;;;;;5136857;27;20771;-79
2022/03/14 01:58:06;;;;;;;3.70;2.97;;;;;;;;;;5088230;28;20194;-79
2022/03/14 02:00:32;;;;;;;3.92;3.45;;;;;;;;;;5063981;28;20498;-78
2022/03/14 02:05:37;;;;;;;4.65;3.10;;;;;;;;;;5192659;27;20656;-79
2022/03/14 02:08:03;;;;;;;3.95;3.30;;;;;;;;;;5149062;27;20303;-79
2022/03/14 02:10:29;;;;;;;3.97;3.40;;;;;;;;;;5170286;27;20226;-78
2022/03/14 02:12:56;;;;;;;4.07;3.50;;;;;;;;;;5170478;27;21482;-79
2022/03/14 02:15:22;;;;;;;4.75;3.63;;;;;;;;;;5160296;27;20462;-78
2022/03/14 02:17:48;;;;;;;3.92;3.53;;;;;;;;;;5154098;27;20215;-78
2022/03/14 02:20:14;;;;;;;4.00;3.60;;;;;;;;;;5109716;27;20199;-79
2022/03/14 02:22:40;;;;;;;4.88;3.85;;;;;;;;;;5101423;28;20909;-78
2022/03/14 02:25:10;;;;;;;5.35;3.65;;;;;;;;;;5097047;28;20569;-79
2022/03/14 02:30:14;;;;;;;4.95;4.35;;;;;;;;;;5192843;27;20493;-76
2022/03/14 02:32:41;;;;;;;5.35;4.85;;;;;;;;;;5187098;27;20182;-77
2022/03/14 02:35:11;;;;;;;8.13;4.60;;;;;;;;;;5174246;27;20415;-77
2022/03/14 02:37:38;;;;;;;4.80;4.30;;;;;;;;;;5131948;27;20293;-80
2022/03/14 02:40:05;;;;;;;5.57;4.80;;;;;;;;;;5089145;28;20270;-78
2022/03/14 02:42:31;;;;;;;5.32;4.32;;;;;;;;;;5063953;28;20676;-80
2022/03/14 02:44:58;;;;;;;4.65;3.70;;;;;;;;;;4987855;28;20185;-78
2022/03/14 02:47:24;;;;;;;6.20;4.35;;;;;;;;;;5043242;28;20217;-78
2022/03/14 02:49:50;;;;;;;6.57;4.70;;;;;;;;;;5013991;28;20272;-78
2022/03/14 02:54:25;;;;;;;5.07;4.20;;;;;;;;;;5193116;27;20832;-79
2022/03/14 02:56:52;;;;;;;7.87;6.07;;;;;;;;;;5155991;27;20210;-79
2022/03/14 02:59:19;;;;;;;5.22;4.47;;;;;;;;;;5154959;27;20422;-79
2022/03/14 03:01:45;;;;;;;5.60;4.80;;;;;;;;;;5169945;27;20275;-79
2022/03/14 03:04:11;;;;;;;5.30;4.80;;;;;;;;;;5154598;27;20232;-79
2022/03/14 03:06:38;;;;;;;5.50;4.30;;;;;;;;;;5087059;28;20936;-79
2022/03/14 03:09:04;;;;;;;5.07;4.60;;;;;;;;;;5083930;28;20433;-80
2022/03/14 03:11:33;;;;;;;5.78;4.95;;;;;;;;;;5049697;28;20233;-80
2022/03/14 03:16:32;;;;;;;4.90;4.45;;;;;;;;;;5184778;27;20312;-80
2022/03/14 03:18:58;;;;;;;5.70;5.10;;;;;;;;;;5171095;27;20188;-80
2022/03/14 03:21:24;;;;;;;5.82;5.20;;;;;;;;;;5192112;27;20196;-80
2022/03/14 03:23:50;;;;;;;10.13;5.70;;;;;;;;;;5186207;27;20186;-80
2022/03/14 03:26:16;;;;;;;9.43;6.40;;;;;;;;;;5147875;27;20959;-80
2022/03/14 03:28:43;;;;;;;5.85;5.25;;;;;;;;;;5147205;27;20419;-79
2022/03/14 03:31:10;;;;;;;5.72;4.95;;;;;;;;;;5134212;27;20553;-79
2022/03/14 03:33:37;;;;;;;6.18;5.60;;;;;;;;;;5121706;27;20190;-80
2022/03/14 03:36:04;;;;;;;7.05;5.90;;;;;;;;;;5075696;28;20251;-80
2022/03/14 03:40:13;;;;;;;5.75;5.15;;;;;;;;;;5193122;27;20493;-79
2022/03/14 03:42:39;;;;;;;6.53;5.57;;;;;;;;;;5187758;27;20637;-79
2022/03/14 03:45:05;;;;;;;7.22;5.72;;;;;;;;;;5192263;27;20422;-80
2022/03/14 03:47:31;;;;;;;7.50;5.20;;;;;;;;;;5166442;27;20258;-80
2022/03/14 03:49:58;;;;;;;6.57;5.80;;;;;;;;;;5126428;27;20556;-80
2022/03/14 03:52:24;;;;;;;13.23;5.57;;;;;;;;;;5105386;28;20204;-80
2022/03/14 03:54:50;;;;;;;5.80;5.20;;;;;;;;;;5063454;28;20200;-80
2022/03/14 03:57:16;;;;;;;10.27;5.83;;;;;;;;;;4977926;28;20216;-80
2022/03/14 04:02:22;;;;;;;6.75;5.97;;;;;;;;;;5192879;27;20993;-81
2022/03/14 04:04:52;;;;;;;7.10;5.50;;;;;;;;;;5187783;27;20185;-80
2022/03/14 04:07:22;;;;;;;5.97;5.20;;;;;;;;;;5155664;27;20205;-81
2022/03/14 04:09:55;;;;;;;5.60;5.00;;;;;;;;;;5170219;27;20182;-80
2022/03/14 04:12:22;;;;;;;6.65;4.85;;;;;;;;;;5145962;27;20237;-81
2022/03/14 04:14:48;;;;;;;7.10;4.85;;;;;;;;;;5112152;27;20196;-81
2022/03/14 04:17:14;;;;;;;5.50;5.00;;;;;;;;;;5103607;28;20216;-81
2022/03/14 04:19:41;;;;;;;6.03;4.97;;;;;;;;;;5046083;28;20208;-81
2022/03/14 04:22:08;;;;;;;6.20;5.13;;;;;;;;;;5031333;28;20829;-80
2022/03/14 04:27:04;;;;;;;6.05;5.45;;;;;;;;;;5180464;27;20498;-81
2022/03/14 04:29:30;;;;;;;4.82;4.07;;;;;;;;;;5170822;27;20288;-80
2022/03/14 04:31:56;;;;;;;5.93;4.78;;;;;;;;;;5172640;27;20602;-80
2022/03/14 04:34:22;;;;;;;5.10;4.60;;;;;;;;;;5191370;27;20199;-81
2022/03/14 04:36:51;;;;;;;6.47;4.60;;;;;;;;;;5133513;27;20815;-80
2022/03/14 04:39:18;;;;;;;5.32;4.43;;;;;;;;;;5106487;28;20591;-81
2022/03/14 04:41:44;;;;;;;4.53;3.63;;;;;;;;;;5110950;28;20203;-82
2022/03/14 04:44:10;;;;;;;5.68;5.00;;;;;;;;;;5071039;28;20272;-81
2022/03/14 04:46:37;;;;;;;6.07;4.40;;;;;;;;;;5050452;27;20212;-80
2022/03/14 04:51:48;;;;;;;5.85;4.65;;;;;;;;;;5193062;27;20485;-81
2022/03/14 04:54:14;;;;;;;4.93;3.63;;;;;;;;;;5154359;27;20193;-81
2022/03/14 04:56:40;;;;;;;8.33;4.10;;;;;;;;;;5183245;27;20300;-81
2022/03/14 04:59:06;;;;;;;5.80;4.33;;;;;;;;;;5170196;27;20490;-81
2022/03/14 05:01:32;;;;;;;5.40;3.93;;;;;;;;;;5123576;27;20865;-81
2022/03/14 05:03:58;;;;;;;6.30;3.53;;;;;;;;;;5097294;28;20775;-81
2022/03/14 05:06:24;;;;;;;4.93;3.90;;;;;;;;;;5100139;28;20210;-81
2022/03/14 05:08:50;;;;;;;5.13;4.07;;;;;;;;;;5088528;28;20188;-81
2022/03/14 05:11:16;;;;;;;4.05;3.40;;;;;;;;;;5011402;28;20820;-81
2022/03/14 05:16:12;;;;;;;4.72;3.63;;;;;;;;;;5186419;27;20867;-81
2022/03/14 05:18:38;;;;;;;4.20;3.30;;;;;;;;;;5164503;27;20296;-80
2022/03/14 05:21:04;;;;;;;5.10;3.33;;;;;;;;;;5134073;27;20621;-81
2022/03/14 05:23:30;;;;;;;3.45;3.15;;;;;;;;;;5164153;27;20277;-81
2022/03/14 05:25:56;;;;;;;6.43;3.50;;;;;;;;;;5126781;27;20199;-81
2022/03/14 05:28:23;;;;;;;6.70;3.38;;;;;;;;;;5091188;28;20180;-81
2022/03/14 05:30:48;;;;;;;6.13;3.65;;;;;;;;;;5017068;28;20250;-81
2022/03/14 05:33:15;;;;;;;9.00;3.70;;;;;;;;;;4894516;29;20204;-81
2022/03/14 05:35:41;;;;;;;3.58;3.28;;;;;;;;;;4817102;29;20487;-81
2022/03/14 05:41:08;;;;;;;4.78;3.20;;;;;;;;;;5193003;27;20492;-80
2022/03/14 05:43:36;;;;;;;7.07;3.60;;;;;;;;;;5187790;27;20189;-80
2022/03/14 05:46:03;;;;;;;4.00;3.42;;;;;;;;;;5167676;27;21057;-81
2022/03/14 05:48:29;;;;;;;6.18;3.40;;;;;;;;;;5155059;27;20185;-80
2022/03/14 05:50:55;;;;;;;5.47;3.60;;;;;;;;;;5140642;27;20187;-81
2022/03/14 05:53:21;;;;;;;5.40;3.50;;;;;;;;;;5094846;28;20476;-79
2022/03/14 05:55:47;;;;;;;3.85;2.90;;;;;;;;;;5083484;28;20430;-81
2022/03/14 05:58:13;;;;;;;6.80;3.37;;;;;;;;;;5080595;28;20206;-80
2022/03/14 06:00:39;;;;;;;5.20;3.53;;;;;;;;;;5048562;28;20472;-80
2022/03/14 06:05:35;;;;;;;5.47;3.67;;;;;;;;;;5192846;27;21007;-80
2022/03/14 06:08:00;;;;;;;8.43;4.43;;;;;;;;;;5150733;27;20214;-80
2022/03/14 06:10:27;;;;;;;4.03;3.53;;;;;;;;;;5171448;27;20193;-81
2022/03/14 06:12:53;;;;;;;6.25;3.35;;;;;;;;;;5128468;27;20813;-81
2022/03/14 06:15:19;;;;;;;5.93;3.85;;;;;;;;;;5078183;28;20202;-80
2022/03/14 06:17:45;;;;;;;8.23;3.72;;;;;;;;;;4987299;28;20218;-78
2022/03/14 06:20:12;;;;;;;7.07;4.80;;;;;;;;;;4984345;28;20188;-81
2022/03/14 06:22:39;;;;;;;6.05;3.72;;;;;;;;;;4954390;28;20196;-81
2022/03/14 06:25:05;;;;;;;8.52;4.57;;;;;;;;;;4838023;29;20229;-79
2022/03/14 06:29:46;;;;;;;7.90;4.10;;;;;;;;;;5193173;27;20477;-80
2022/03/14 06:32:13;;;;;;;6.60;3.58;;;;;;;;;;5187770;27;20194;-80
2022/03/14 06:34:39;;;;;;;5.38;3.65;;;;;;;;;;5184834;27;20177;-80
2022/03/14 06:37:07;;;;;;;11.95;3.92;;;;;;;;;;5157778;27;20270;-80
2022/03/14 06:39:34;;;;;;;30.83;5.28;;;;;;;;;;5152909;27;20178;-80
2022/03/14 06:42:01;;;;;;;10.10;4.35;;;;;;;;;;5174301;27;20547;-80
2022/03/14 06:44:28;;;;;;;6.47;3.85;;;;;;;;;;5136166;27;20192;-80
2022/03/14 06:46:55;;;;;;;6.60;4.22;;;;;;;;;;5043866;28;20223;-81
2022/03/14 06:49:21;;;;;;;8.70;4.82;;;;;;;;;;5088050;28;20693;-80
2022/03/14 06:54:26;;;;;;;10.68;3.30;;;;;;;;;;5192809;27;20492;-79
2022/03/14 06:56:52;;;;;;;11.90;4.35;;;;;;;;;;5175960;27;20209;-82
2022/03/14 06:59:18;;;;;;;10.43;4.10;;;;;;;;;;5133011;27;20239;-81
2022/03/14 07:01:47;;;;;;;6.63;3.97;;;;;;;;;;5170911;27;20423;-81
2022/03/14 07:04:13;;;;;;;7.00;3.75;;;;;;;;;;5136681;27;20833;-78
2022/03/14 07:06:39;;;;;;;13.23;3.67;;;;;;;;;;5078097;28;20271;-78
2022/03/14 07:09:05;;;;;;;6.60;4.15;;;;;;;;;;5106814;28;20846;-79
2022/03/14 07:11:31;;;;;;;12.70;4.03;;;;;;;;;;4959000;28;20240;-78
2022/03/14 07:13:57;;;;;;;6.07;3.50;;;;;;;;;;4839955;29;20478;-79
2022/03/14 07:17:22;;;;;;;9.20;3.90;;;;;;;;;;5177774;27;20502;-81
2022/03/14 07:19:48;;;;;;;6.45;4.40;;;;;;;;;;5171043;27;20205;-82
2022/03/14 07:22:19;;;;;;;10.20;4.37;;;;;;;;;;5192066;27;20185;-79
2022/03/14 07:24:45;;;;;;;11.52;3.90;;;;;;;;;;5169231;27;20423;-80
2022/03/14 07:27:12;;;;;;;7.55;3.45;;;;;;;;;;5113481;27;20210;-81
2022/03/14 07:29:38;;;;;;;10.48;3.33;;;;;;;;;;5046897;28;20677;-80
2022/03/14 07:32:05;;;;;;;10.63;3.17;;;;;;;;;;5043158;28;20193;-81
2022/03/14 07:34:31;;;;;;;9.65;3.65;;;;;;;;;;5002330;28;20331;-80
2022/03/14 07:36:57;;;;;;;6.28;3.50;;;;;;;;;;5014320;28;20228;-81
2022/03/14 07:42:01;;;;;;;7.00;3.58;;;;;;;;;;5193226;27;20493;-80
2022/03/14 07:44:27;;;;;;;3.83;2.63;;;;;;;;;;5187755;27;20193;-81
2022/03/14 07:46:52;;;;;;;5.17;3.27;;;;;;;;;;5181364;27;20506;-81
2022/03/14 07:49:20;;;;;;;6.83;3.50;;;;;;;;;;5170777;27;20794;-81
2022/03/14 07:51:46;;;;;;;6.07;3.63;;;;;;;;;;5116751;27;20473;-80
2022/03/14 07:54:12;;;;;;;4.32;2.50;;;;;;;;;;5091230;28;20246;-79
2022/03/14 07:56:38;;;;;;;9.27;3.53;;;;;;;;;;5071219;28;20292;-81
2022/03/14 07:59:04;;;;;;;15.17;2.90;;;;;;;;;;5030795;28;20771;-79
2022/03/14 08:01:30;;;;;;;5.32;3.05;;;;;;;;;;4952663;28;20647;-80
2022/03/14 08:06:42;;;;;;;5.50;3.00;;;;;;;;;;5184274;27;20506;-82
2022/03/14 08:09:11;;;;;;;3.67;2.10;;;;;;;;;;5186609;27;20189;-82
2022/03/14 08:11:41;;;;;;;6.50;2.60;;;;;;;;;;5171918;27;20189;-82
2022/03/14 08:14:07;;;;;;;5.95;2.58;;;;;;;;;;5175298;27;20237;-81
2022/03/14 08:16:33;;;;;;;9.60;3.20;;;;;;;;;;5156549;27;20211;-78
2022/03/14 08:18:59;;;;;;;12.52;3.05;;;;;;;;;;5174888;27;20185;-78
2022/03/14 08:21:26;;;;;;;4.53;2.13;;;;;;;;;;5132795;27;20187;-82
2022/03/14 08:23:52;;;;;;;8.35;2.47;;;;;;;;;;5041698;27;20222;-79
2022/03/14 08:26:18;;;;;;;4.57;2.70;;;;;;;;;;5023858;28;20288;-81
2022/03/14 08:31:17;;;;;;;7.60;2.90;;;;;;;;;;5182782;27;20292;-80
2022/03/14 08:33:44;;;;;;;5.45;2.60;;;;;;;;;;5185367;27;20209;-79
2022/03/14 08:36:10;;;;;;;4.57;2.17;;;;;;;;;;5189607;27;20219;-80
2022/03/14 08:38:38;;;;;;;7.90;3.15;;;;;;;;;;5166272;27;20191;-80
2022/03/14 08:41:04;;;;;;;8.15;2.38;;;;;;;;;;5138143;27;20191;-79
2022/03/14 08:43:30;;;;;;;6.70;2.63;;;;;;;;;;5049787;28;20190;-81
2022/03/14 08:45:56;;;;;;;8.20;2.10;;;;;;;;;;4991405;28;20210;-79
2022/03/14 08:48:22;;;;;;;4.50;2.13;;;;;;;;;;4837231;29;20452;-80
2022/03/14 08:53:12;;;;;;;4.78;2.72;;;;;;;;;;5193003;27;20291;-81
2022/03/14 08:55:38;;;;;;;5.27;2.70;;;;;;;;;;5187567;27;20192;-79
2022/03/14 08:58:04;;;;;;;5.50;2.90;;;;;;;;;;5171041;27;20450;-80
2022/03/14 09:00:31;;;;;;;6.10;2.72;;;;;;;;;;5170606;27;20438;-80
2022/03/14 09:02:57;;;;;;;5.17;3.20;;;;;;;;;;5106433;28;20536;-78
2022/03/14 09:05:23;;;;;;;8.70;3.30;;;;;;;;;;5052872;28;20406;-79
2022/03/14 09:07:52;;;;;;;8.77;3.28;;;;;;;;;;5046099;28;20452;-79
2022/03/14 09:10:18;;;;;;;5.33;2.90;;;;;;;;;;5051732;28;20188;-81
2022/03/14 09:12:44;;;;;;;7.17;4.60;;;;;;;;;;4920048;28;20482;-79
2022/03/14 09:17:08;;;;;;;4.50;3.15;;;;;;;;;;5179650;27;20503;-80
2022/03/14 09:19:34;;;;;;;7.10;3.20;;;;;;;;;;5164440;27;20552;-79
2022/03/14 09:22:00;;;;;;;6.53;4.20;;;;;;;;;;5155277;27;20774;-79
2022/03/14 09:24:26;;;;;;;7.07;2.70;;;;;;;;;;5148919;27;20427;-80
2022/03/14 09:26:55;;;;;;;5.90;2.90;;;;;;;;;;5109182;28;20228;-80
2022/03/14 09:29:21;;;;;;;3.53;2.65;;;;;;;;;;5053713;28;20189;-79
2022/03/14 09:31:49;;;;;;;6.60;3.03;;;;;;;;;;5077953;28;20199;-80
2022/03/14 09:34:15;;;;;;;3.45;3.15;;;;;;;;;;5085389;28;20501;-79
2022/03/14 09:36:41;;;;;;;8.05;2.38;;;;;;;;;;4946253;28;20639;-81
2022/03/14 09:41:39;;;;;;;8.23;3.35;;;;;;;;;;5192938;27;20295;-78
2022/03/14 09:44:07;;;;;;;7.13;2.90;;;;;;;;;;5168870;27;20188;-79
2022/03/14 09:46:36;;;;;;;3.50;2.70;;;;;;;;;;5165024;27;20768;-79
2022/03/14 09:49:03;;;;;;;2.23;1.93;;;;;;;;;;5150726;27;20431;-77
2022/03/14 09:51:29;;;;;;;1.90;1.30;;;;;;;;;;5082236;28;20438;-76
2022/03/14 09:53:55;;;;;;;5.93;1.80;;;;;;;;;;5016190;28;20517;-78
2022/03/14 09:56:22;;;;;;;4.10;2.63;;;;;;;;;;4973618;28;20454;-78
2022/03/14 09:58:48;;;;;;;3.00;1.90;;;;;;;;;;4905636;28;20455;-77
2022/03/14 10:03:47;;;;;;;4.77;2.30;;;;;;;;;;5193120;27;20477;-76
2022/03/14 10:06:14;;;;;;;3.73;1.90;;;;;;;;;;5182573;27;20405;-76
2022/03/14 10:08:40;;;;;;;2.73;1.40;;;;;;;;;;5151678;27;20497;-75
2022/03/14 10:11:08;;;;;;;3.20;1.33;;;;;;;;;;5170190;27;20439;-80
2022/03/14 10:13:35;;;;;;;2.97;1.80;;;;;;;;;;5148985;27;20397;-77
2022/03/14 10:16:01;;;;;;;6.47;2.70;;;;;;;;;;5047301;28;20555;-79
2022/03/14 10:18:27;;;;;;;3.80;2.90;;;;;;;;;;5061790;28;20766;-78
2022/03/14 10:20:57;;;;;;;4.03;2.73;;;;;;;;;;5020502;28;20412;-79
2022/03/14 10:23:30;;;;;;;6.73;2.57;;;;;;;;;;5026505;28;20587;-79
2022/03/14 10:28:32;;;;;;;7.00;3.10;;;;;;;;;;5193092;27;20621;-78
2022/03/14 10:31:00;;;;;;;5.83;3.00;;;;;;;;;;5187805;27;20414;-80
2022/03/14 10:33:28;;;;;;;5.47;2.97;;;;;;;;;;5192222;27;20764;-80
2022/03/14 10:35:55;;;;;;;6.30;2.77;;;;;;;;;;5164991;27;20439;-77
2022/03/14 10:38:21;;;;;;;3.30;2.30;;;;;;;;;;5139863;27;20416;-78
2022/03/14 10:40:48;;;;;;;7.37;2.93;;;;;;;;;;5112649;28;20395;-80
2022/03/14 10:43:27;;;;;;;5.67;3.50;;;;;;;;;;5123578;27;20406;-80
2022/03/14 10:45:54;;;;;;;6.43;3.03;;;;;;;;;;5113353;28;20436;-79
2022/03/14 10:48:39;;;;;;;6.00;3.23;;;;;;;;;;5095921;28;20547;-80
2022/03/14 10:53:47;;;;;;;5.97;3.17;;;;;;;;;;5192896;27;20822;-79
2022/03/14 10:56:13;;;;;;;4.90;3.23;;;;;;;;;;5163787;27;20432;-79
2022/03/14 10:58:39;;;;;;;3.77;2.80;;;;;;;;;;5152213;27;20531;-80
2022/03/14 11:01:07;;;;;;;7.83;3.47;;;;;;;;;;5165582;27;20399;-79
2022/03/14 11:03:33;;;;;;;4.90;2.93;;;;;;;;;;5133716;27;20438;-80
2022/03/14 11:06:04;;;;;;;3.83;2.63;;;;;;;;;;5055182;28;20518;-79
2022/03/14 11:08:31;;;;;;;3.30;3.00;;;;;;;;;;5015303;28;20430;-80
2022/03/14 11:10:57;;;;;;;5.50;3.60;;;;;;;;;;4990287;28;20492;-80
2022/03/14 11:13:24;;;;;;;6.43;2.87;;;;;;;;;;4956740;28;20496;-79
2022/03/14 11:18:09;;;;;;;5.93;2.40;;;;;;;;;;5188036;27;20348;-78
2022/03/14 11:20:35;;;;;;;4.67;2.20;;;;;;;;;;5180723;27;20432;-79
2022/03/14 11:23:01;;;;;;;5.10;1.60;;;;;;;;;;5175566;27;20426;-77
2022/03/14 11:25:28;;;;;;;3.37;1.70;;;;;;;;;;5207812;27;20479;-78
2022/03/14 11:27:56;;;;;;;4.47;2.03;;;;;;;;;;5162262;27;20798;-79
2022/03/14 11:30:22;;;;;;;3.77;1.70;;;;;;;;;;5140139;27;20406;-78
2022/03/14 11:32:48;;;;;;;6.27;1.77;;;;;;;;;;5171357;27;22385;-79
2022/03/14 11:35:15;;;;;;;2.40;1.37;;;;;;;;;;5131928;27;20424;-79
2022/03/14 11:37:42;;;;;;;1.73;1.30;;;;;;;;;;5106850;27;20479;-79
2022/03/14 11:42:47;;;;;;;4.73;1.03;;;;;;;;;;5183332;27;20491;-80
2022/03/14 11:45:14;;;;;;;7.53;1.50;;;;;;;;;;5169692;27;20792;-78
2022/03/14 11:47:40;;;;;;;8.90;1.70;;;;;;;;;;5146516;27;20444;-78
2022/03/14 11:50:07;;;;;;;1.20;0.83;;;;;;;;;;5148981;27;20449;-78
2022/03/14 11:52:38;;;;;;;4.30;1.17;;;;;;;;;;5129526;27;20436;-78
2022/03/14 11:55:14;;;;;;;4.37;0.83;;;;;;;;;;5042032;28;20433;-80
2022/03/14 11:57:41;;;;;;;2.60;0.93;;;;;;;;;;4963014;28;20461;-78
2022/03/14 12:00:25;;;;;;;2.70;1.00;;;;;;;;;;4905319;29;20415;-78
2022/03/14 12:02:56;;;;;;;4.73;1.10;;;;;;;;;;4818270;29;21167;-80
2022/03/14 12:07:16;;;;;;;2.47;1.70;;;;;;;;;;5170125;27;20840;-79
2022/03/14 12:09:48;;;;;;;7.97;1.40;;;;;;;;;;5186669;27;20465;-80
2022/03/14 12:12:26;;;;;;;7.30;1.97;;;;;;;;;;5149851;27;20506;-80
2022/03/14 12:15:02;;;;;;;5.53;2.50;;;;;;;;;;5142323;27;20767;-79
2022/03/14 12:17:31;;;;;;;2.80;1.70;;;;;;;;;;5083047;28;20446;-78
2022/03/14 12:20:03;;;;;;;5.50;2.37;;;;;;;;;;5009676;28;20726;-78
2022/03/14 12:22:29;;;;;;;3.43;1.83;;;;;;;;;;4931355;29;20430;-79
2022/03/14 12:24:56;;;;;;;3.80;1.80;;;;;;;;;;4941073;28;20427;-79
2022/03/14 12:27:26;;;;;;;6.90;1.90;;;;;;;;;;4954771;28;20471;-79
2022/03/14 12:32:55;;;;;;;2.20;2.00;;;;;;;;;;5192522;27;21023;-78
2022/03/14 12:35:25;;;;;;;3.67;2.17;;;;;;;;;;5187680;27;20423;-79
2022/03/14 12:37:54;;;;;;;6.77;2.13;;;;;;;;;;5154257;27;20415;-78
2022/03/14 12:40:20;;;;;;;6.23;1.97;;;;;;;;;;5170161;27;20764;-78
2022/03/14 12:42:47;;;;;;;3.50;1.90;;;;;;;;;;5149075;27;20388;-79
2022/03/14 12:45:19;;;;;;;5.43;2.00;;;;;;;;;;5126424;28;20448;-77
2022/03/14 12:47:50;;;;;;;4.03;2.00;;;;;;;;;;5141908;27;20441;-81
2022/03/14 12:50:35;;;;;;;6.50;2.30;;;;;;;;;;5107909;27;20417;-78
2022/03/14 12:53:02;;;;;;;2.73;1.60;;;;;;;;;;4953993;28;20535;-79
2022/03/14 12:58:35;;;;;;;4.00;1.90;;;;;;;;;;5186649;27;20481;-79
2022/03/14 13:01:04;;;;;;;7.20;2.30;;;;;;;;;;5160112;27;20403;-80
2022/03/14 13:03:31;;;;;;;7.60;2.33;;;;;;;;;;5192312;27;20384;-78
2022/03/14 13:05:57;;;;;;;6.00;2.90;;;;;;;;;;5188542;27;20477;-77
2022/03/14 13:08:24;;;;;;;3.90;2.70;;;;;;;;;;5150501;27;20948;-78
2022/03/14 13:10:51;;;;;;;4.80;2.20;;;;;;;;;;5082993;28;20499;-79
2022/03/14 13:13:31;;;;;;;4.40;2.27;;;;;;;;;;5099356;28;20432;-79
2022/03/14 13:16:03;;;;;;;6.77;2.70;;;;;;;;;;5009332;28;20779;-78
2022/03/14 13:18:32;;;;;;;6.53;2.13;;;;;;;;;;4957835;28;20481;-80
2022/03/14 13:23:19;;;;;;;7.13;3.20;;;;;;;;;;5192722;27;20291;-77
2022/03/14 13:25:49;;;;;;;6.30;2.77;;;;;;;;;;5186880;27;20429;-77
2022/03/14 13:28:28;;;;;;;5.53;2.33;;;;;;;;;;5171003;27;20816;-79
2022/03/14 13:30:56;;;;;;;6.33;2.67;;;;;;;;;;5142784;27;20422;-79
2022/03/14 13:33:26;;;;;;;4.80;2.77;;;;;;;;;;5106710;28;20412;-77
2022/03/14 13:35:57;;;;;;;5.00;2.57;;;;;;;;;;5084816;28;20971;-79
2022/03/14 13:38:30;;;;;;;3.80;2.70;;;;;;;;;;5109651;28;20399;-79
2022/03/14 13:40:56;;;;;;;5.40;2.47;;;;;;;;;;5011695;28;21030;-79
2022/03/14 13:43:22;;;;;;;6.47;2.67;;;;;;;;;;4980588;28;20397;-78
2022/03/14 13:47:30;;;;;;;3.80;2.47;;;;;;;;;;5176918;27;20493;-77
2022/03/14 13:50:02;;;;;;;5.97;2.60;;;;;;;;;;5170815;27;20517;-77
2022/03/14 13:52:28;;;;;;;6.70;3.03;;;;;;;;;;5174596;27;20430;-78
2022/03/14 13:54:54;;;;;;;5.47;2.77;;;;;;;;;;5191000;27;20433;-76
2022/03/14 13:57:24;;;;;;;5.50;2.97;;;;;;;;;;5169227;27;20782;-78
2022/03/14 13:59:51;;;;;;;4.57;2.40;;;;;;;;;;5109076;28;20426;-78
2022/03/14 14:02:21;;;;;;;8.87;3.40;;;;;;;;;;5091883;28;20400;-76
2022/03/14 14:04:50;;;;;;;4.83;2.90;;;;;;;;;;4990351;28;20458;-77
2022/03/14 14:07:17;;;;;;;5.47;2.57;;;;;;;;;;4818252;29;21006;-78
2022/03/14 14:11:55;;;;;;;5.83;2.43;;;;;;;;;;5193094;27;21008;-80
2022/03/14 14:14:25;;;;;;;4.00;2.53;;;;;;;;;;5171488;27;20886;-79
2022/03/14 14:16:52;;;;;;;6.50;2.60;;;;;;;;;;5181455;27;20450;-80
2022/03/14 14:19:18;;;;;;;6.13;2.70;;;;;;;;;;5170278;27;20408;-78
2022/03/14 14:21:55;;;;;;;3.17;1.93;;;;;;;;;;5114979;27;20921;-77
2022/03/14 14:24:24;;;;;;;3.33;1.80;;;;;;;;;;4997495;28;20442;-79
2022/03/14 14:26:51;;;;;;;8.80;3.07;;;;;;;;;;5059891;28;20446;-78
2022/03/14 14:29:37;;;;;;;3.50;1.80;;;;;;;;;;5019524;28;20439;-79
2022/03/14 14:32:19;;;;;;;3.43;1.77;;;;;;;;;;4809650;29;20410;-79
2022/03/14 14:36:53;;;;;;;3.27;2.27;;;;;;;;;;5182179;27;20841;-78
2022/03/14 14:39:20;;;;;;;5.33;2.47;;;;;;;;;;5187683;27;20400;-79
2022/03/14 14:41:46;;;;;;;3.60;2.17;;;;;;;;;;5192059;27;20512;-79
2022/03/14 14:44:12;;;;;;;3.67;2.43;;;;;;;;;;5191455;27;20772;-78
2022/03/14 14:46:39;;;;;;;7.93;2.47;;;;;;;;;;5138685;27;20445;-80
2022/03/14 14:49:06;;;;;;;3.87;2.37;;;;;;;;;;5112382;28;20420;-80
2022/03/14 14:51:34;;;;;;;4.83;2.47;;;;;;;;;;5121528;27;20535;-79
2022/03/14 14:54:00;;;;;;;4.57;2.00;;;;;;;;;;5163145;27;20837;-78
2022/03/14 14:56:26;;;;;;;8.67;3.67;;;;;;;;;;5153615;27;20477;-78
2022/03/14 15:01:29;;;;;;;4.40;2.20;;;;;;;;;;5192983;27;20492;-79
2022/03/14 15:03:57;;;;;;;5.77;1.97;;;;;;;;;;5187684;27;20782;-80
2022/03/14 15:06:23;;;;;;;4.33;2.33;;;;;;;;;;5185691;27;20446;-80
2022/03/14 15:08:49;;;;;;;2.60;1.73;;;;;;;;;;5170240;27;20397;-80
2022/03/14 15:11:15;;;;;;;5.83;2.40;;;;;;;;;;5079074;28;20505;-80
2022/03/14 15:13:41;;;;;;;4.47;2.10;;;;;;;;;;5018146;28;20844;-80
2022/03/14 15:16:07;;;;;;;5.90;2.53;;;;;;;;;;5048092;28;20423;-79
2022/03/14 15:18:33;;;;;;;5.43;2.10;;;;;;;;;;5008848;28;20430;-79
2022/03/14 15:21:00;;;;;;;5.20;2.53;;;;;;;;;;5012447;28;20475;-78
2022/03/14 15:26:05;;;;;;;3.20;2.30;;;;;;;;;;5189059;27;20501;-78
2022/03/14 15:28:31;;;;;;;3.33;2.03;;;;;;;;;;5170303;27;20911;-79
2022/03/14 15:30:58;;;;;;;4.73;1.47;;;;;;;;;;5191814;27;20392;-78
2022/03/14 15:33:24;;;;;;;3.27;1.80;;;;;;;;;;5184269;27;20437;-79
2022/03/14 15:35:51;;;;;;;4.90;2.03;;;;;;;;;;5152508;27;20738;-79
2022/03/14 15:38:17;;;;;;;3.30;1.97;;;;;;;;;;5104216;27;20792;-78
2022/03/14 15:40:44;;;;;;;7.23;2.13;;;;;;;;;;5130419;27;20402;-79
2022/03/14 15:43:10;;;;;;;2.90;1.70;;;;;;;;;;5095284;28;20439;-80
2022/03/14 15:45:36;;;;;;;4.67;2.03;;;;;;;;;;5025670;28;20494;-79
2022/03/14 15:50:34;;;;;;;4.00;1.97;;;;;;;;;;5192960;27;20290;-78
2022/03/14 15:53:01;;;;;;;8.20;2.50;;;;;;;;;;5187030;27;20421;-77
2022/03/14 15:55:27;;;;;;;4.37;2.10;;;;;;;;;;5172059;27;20422;-77
2022/03/14 15:57:53;;;;;;;2.87;1.83;;;;;;;;;;5172257;27;20457;-75
2022/03/14 16:00:20;;;;;;;5.50;2.07;;;;;;;;;;5122532;27;20505;-75
2022/03/14 16:02:46;;;;;;;4.13;1.93;;;;;;;;;;5054006;28;20399;-76
2022/03/14 16:05:12;;;;;;;8.60;3.03;;;;;;;;;;5060734;28;20507;-75
2022/03/14 16:07:38;;;;;;;2.93;2.13;;;;;;;;;;5048478;28;20447;-76
2022/03/14 16:10:06;;;;;;;4.43;2.30;;;;;;;;;;5008507;28;20477;-77
2022/03/14 16:15:09;;;;;;;6.83;2.40;;;;;;;;;;5192918;27;20280;-77
2022/03/14 16:17:35;;;;;;;12.23;2.13;;;;;;;;;;5165258;27;20443;-77
2022/03/14 16:20:02;;;;;;;5.63;1.70;;;;;;;;;;5171062;27;20397;-79
2022/03/14 16:22:28;;;;;;;4.17;2.17;;;;;;;;;;5165473;27;20426;-80